Time;durP1;ratioP1;P1;durP2;ratioP2;P2;SDS_P1;SDS_P2;PMS_P1;PMS_P2;Temp;Humidity;BMP_temperature;BMP_pressure;BME280_temperature;BME280_humidity;BME280_pressure;Samples;Min_cycle;Max_cycle;Signal;HPM_P1;HPM_P2
2022/03/11 00:02:29;;;;;;;;;;;;;;;3.43;28.84;101490.16;4413636;32;20002;-70
2022/03/11 00:04:57;;;;;;;;;;;;;;;3.32;28.83;101491.03;4413505;32;19994;-71
2022/03/11 00:07:24;;;;;;;;;;;;;;;3.32;28.95;101488.47;4413847;32;20035;-70
2022/03/11 00:09:52;;;;;;;;;;;;;;;3.28;29.06;101494.16;4413651;32;20000;-70
2022/03/11 00:12:19;;;;;;;;;;;;;;;3.22;29.07;101485.28;4382894;32;20017;-69
2022/03/11 00:14:46;;;;;;;;;;;;;;;2.96;29.35;101480.81;4405669;32;20012;-70
2022/03/11 00:17:13;;;;;;;;;;;;;;;2.77;29.53;101488.81;4409655;32;20099;-72
2022/03/11 00:19:42;;;;;;;;;;;;;;;2.77;29.52;101491.37;4403728;32;20004;-70
2022/03/11 00:22:10;;;;;;;;;;;;;;;2.72;29.82;101487.59;4401395;32;19989;-70
2022/03/11 00:24:37;;;;;;;;;;;;;;;2.53;29.99;101487.03;4412236;32;19995;-70
2022/03/11 00:27:04;;;;;;;;;;;;;;;2.69;29.50;101497.59;4418762;32;19993;-70
2022/03/11 00:29:31;;;;;;;;;;;;;;;2.85;29.71;101486.84;4413504;32;19986;-71
2022/03/11 00:31:58;;;;;;;;;;;;;;;3.01;29.44;101478.63;4413775;32;20025;-70
2022/03/11 00:34:25;;;;;;;;;;;;;;;2.88;29.33;101475.94;4417325;32;20000;-71
2022/03/11 00:36:52;;;;;;;;;;;;;;;2.84;29.66;101484.16;4429814;32;19997;-75
2022/03/11 00:39:22;;;;;;;;;;;;;;;2.80;29.91;101481.37;4413339;32;19978;-70
2022/03/11 00:41:49;;;;;;;;;;;;;;;2.82;29.61;101481.50;4413880;32;20029;-70
2022/03/11 00:44:16;;;;;;;;;;;;;;;2.78;29.54;101480.38;4415628;32;19999;-70
2022/03/11 00:46:43;;;;;;;;;;;;;;;2.97;29.57;101479.19;4413643;32;20311;-70
2022/03/11 00:49:10;;;;;;;;;;;;;;;3.24;29.08;101470.91;4414173;32;20337;-72
2022/03/11 00:51:37;;;;;;;;;;;;;;;3.23;28.90;101475.94;4415563;32;19986;-70
2022/03/11 00:54:03;;;;;;;;;;;;;;;3.17;28.97;101481.50;4421444;32;20009;-71
2022/03/11 00:56:31;;;;;;;;;;;;;;;3.32;28.68;101478.25;4418405;32;20031;-70
2022/03/11 00:58:57;;;;;;;;;;;;;;;3.29;28.65;101475.47;4415960;32;19982;-71
2022/03/11 01:01:24;;;;;;;;;;;;;;;2.96;28.96;101477.37;4415922;32;20322;-70
2022/03/11 01:03:52;;;;;;;;;;;;;;;2.93;29.33;101474.59;4422908;32;20036;-70
2022/03/11 01:06:18;;;;;;;;;;;;;;;3.12;29.14;101472.59;4417196;32;20099;-72
2022/03/11 01:08:45;;;;;;;;;;;;;;;3.41;28.55;101472.12;4415712;32;19970;-70
2022/03/11 01:11:12;;;;;;;;;;;;;;;3.27;28.72;101470.25;4415426;32;19985;-70
2022/03/11 01:13:39;;;;;;;;;;;;;;;3.49;28.28;101470.13;4416236;32;20066;-69
2022/03/11 01:16:06;;;;;;;;;;;;;;;3.25;28.85;101475.28;4417287;32;19974;-71
2022/03/11 01:18:34;;;;;;;;;;;;;;;3.41;28.73;101476.34;4422196;32;20295;-70
2022/03/11 01:21:03;;;;;;;;;;;;;;;3.03;29.35;101469.38;4416133;32;19998;-70
2022/03/11 01:23:31;;;;;;;;;;;;;;;3.38;28.81;101476.12;4419538;32;20002;-69
2022/03/11 01:25:58;;;;;;;;;;;;;;;2.98;29.04;101474.16;4426683;32;20001;-72
2022/03/11 01:28:24;;;;;;;;;;;;;;;3.09;29.10;101474.94;4431179;32;19991;-70
2022/03/11 01:30:51;;;;;;;;;;;;;;;3.06;29.33;101482.38;4431140;32;20889;-70
2022/03/11 01:33:18;;;;;;;;;;;;;;;3.22;29.04;101485.28;4427497;32;19992;-70
2022/03/11 01:35:46;;;;;;;;;;;;;;;2.94;29.43;101477.28;4437423;32;20025;-72
2022/03/11 01:38:13;;;;;;;;;;;;;;;3.11;29.23;101483.63;4431493;32;19977;-70
2022/03/11 01:40:40;;;;;;;;;;;;;;;3.13;29.26;101471.84;4431359;32;19989;-69
2022/03/11 01:43:14;;;;;;;;;;;;;;;3.25;28.81;101459.94;4423533;32;20037;-71
2022/03/11 01:45:41;;;;;;;;;;;;;;;3.09;29.44;101457.03;4422333;32;20034;-70
2022/03/11 01:48:10;;;;;;;;;;;;;;;3.25;28.89;101459.00;4417209;32;20034;-71
2022/03/11 01:50:40;;;;;;;;;;;;;;;3.20;28.71;101474.06;4423606;32;19989;-70
2022/03/11 01:53:08;;;;;;;;;;;;;;;3.34;28.65;101471.59;4426990;32;20009;-71
2022/03/11 01:55:35;;;;;;;;;;;;;;;3.20;28.42;101468.94;4427561;32;20041;-71
2022/03/11 01:58:02;;;;;;;;;;;;;;;3.21;28.75;101462.12;4417537;32;20012;-70
2022/03/11 02:00:30;;;;;;;;;;;;;;;3.20;28.71;101461.25;4414840;32;20446;-69
2022/03/11 02:02:57;;;;;;;;;;;;;;;3.30;28.66;101467.03;4415241;32;19999;-70
2022/03/11 02:05:24;;;;;;;;;;;;;;;3.34;28.62;101467.34;4415443;32;20011;-70
2022/03/11 02:07:50;;;;;;;;;;;;;;;3.29;28.87;101465.22;4424288;32;19992;-70
2022/03/11 02:10:18;;;;;;;;;;;;;;;3.32;28.87;101465.44;4415773;32;20394;-70
2022/03/11 02:12:45;;;;;;;;;;;;;;;3.66;28.05;101464.50;4415291;32;19990;-71
2022/03/11 02:15:13;;;;;;;;;;;;;;;3.43;28.71;101467.13;4415529;32;20001;-71
2022/03/11 02:17:41;;;;;;;;;;;;;;;3.41;28.90;101461.00;4421325;32;19981;-70
2022/03/11 02:20:08;;;;;;;;;;;;;;;3.52;28.57;101469.44;4417856;32;19998;-70
2022/03/11 02:22:36;;;;;;;;;;;;;;;3.58;28.04;101475.00;4415898;32;19997;-70
2022/03/11 02:25:05;;;;;;;;;;;;;;;3.13;28.45;101478.63;4415698;32;20001;-70
2022/03/11 02:27:35;;;;;;;;;;;;;;;3.33;28.34;101472.38;4423994;32;20387;-70
2022/03/11 02:30:04;;;;;;;;;;;;;;;3.29;28.52;101472.91;4415606;32;20385;-71
2022/03/11 02:32:31;;;;;;;;;;;;;;;3.30;28.51;101469.59;4348762;32;20441;-70
2022/03/11 02:34:58;;;;;;;;;;;;;;;3.49;29.11;101476.12;4401725;32;20007;-70
2022/03/11 02:37:24;;;;;;;;;;;;;;;3.17;28.51;101467.81;4407201;32;19982;-70
2022/03/11 02:39:55;;;;;;;;;;;;;;;3.23;28.86;101466.59;4407280;32;20040;-71
2022/03/11 02:42:22;;;;;;;;;;;;;;;3.53;28.04;101472.09;4401087;32;19986;-70
2022/03/11 02:44:49;;;;;;;;;;;;;;;3.58;28.50;101480.13;4406167;32;19990;-70
2022/03/11 02:47:16;;;;;;;;;;;;;;;3.42;28.99;101473.03;4420318;32;20057;-70
2022/03/11 02:49:42;;;;;;;;;;;;;;;3.44;29.22;101466.31;4410671;32;20000;-70
2022/03/11 02:52:09;;;;;;;;;;;;;;;3.43;28.91;101459.44;4405951;32;20346;-70
2022/03/11 02:54:36;;;;;;;;;;;;;;;3.47;29.97;101466.53;4400529;32;19982;-70
2022/03/11 02:57:03;;;;;;;;;;;;;;;3.54;29.73;101461.06;4407470;32;20037;-70
2022/03/11 02:59:30;;;;;;;;;;;;;;;3.38;30.09;101476.12;4400866;32;20371;-70
2022/03/11 03:01:58;;;;;;;;;;;;;;;3.33;29.04;101477.50;4401809;32;19985;-69
2022/03/11 03:04:24;;;;;;;;;;;;;;;3.53;29.15;101466.09;4396797;32;20037;-70
2022/03/11 03:06:52;;;;;;;;;;;;;;;3.59;30.06;101467.41;4384813;32;19971;-70
2022/03/11 03:09:19;;;;;;;;;;;;;;;3.64;29.61;101467.75;4412760;32;20004;-70
2022/03/11 03:11:45;;;;;;;;;;;;;;;3.62;29.47;101472.75;4433115;32;20033;-72
2022/03/11 03:14:12;;;;;;;;;;;;;;;3.52;30.02;101469.44;4415361;32;19978;-72
2022/03/11 03:16:39;;;;;;;;;;;;;;;3.57;28.92;101474.09;4415464;32;20323;-71
2022/03/11 03:19:06;;;;;;;;;;;;;;;3.27;29.90;101462.59;4420291;32;19993;-70
2022/03/11 03:21:33;;;;;;;;;;;;;;;3.27;29.51;101462.59;4419003;32;19978;-71
2022/03/11 03:24:00;;;;;;;;;;;;;;;3.17;30.32;101466.16;4415351;32;19989;-71
2022/03/11 03:26:26;;;;;;;;;;;;;;;3.22;30.36;101469.94;4415589;32;19975;-70
2022/03/11 03:28:53;;;;;;;;;;;;;;;3.20;31.42;101458.69;4422084;32;19997;-70
2022/03/11 03:31:21;;;;;;;;;;;;;;;2.96;31.89;101469.72;4416357;32;19998;-70
2022/03/11 03:33:48;;;;;;;;;;;;;;;3.03;31.28;101472.84;4422952;32;20409;-70
2022/03/11 03:36:15;;;;;;;;;;;;;;;3.09;31.94;101462.12;4426394;32;19997;-70
2022/03/11 03:38:42;;;;;;;;;;;;;;;2.92;31.35;101462.59;4423188;32;20323;-70
2022/03/11 03:41:09;;;;;;;;;;;;;;;3.09;30.88;101464.69;4415670;32;19993;-70
2022/03/11 03:43:36;;;;;;;;;;;;;;;2.98;31.00;101457.94;4417007;32;20349;-71
2022/03/11 03:46:06;;;;;;;;;;;;;;;3.04;31.30;101463.50;4418232;32;20016;-70
2022/03/11 03:48:34;;;;;;;;;;;;;;;3.03;30.93;101466.81;4430406;32;20004;-72
2022/03/11 03:51:01;;;;;;;;;;;;;;;2.90;31.56;101464.16;4423167;32;19986;-71
2022/03/11 03:53:28;;;;;;;;;;;;;;;3.00;30.96;101466.63;4439780;32;19977;-72
2022/03/11 03:55:55;;;;;;;;;;;;;;;2.90;31.49;101465.03;4425255;32;19996;-71
2022/03/11 03:58:21;;;;;;;;;;;;;;;2.93;32.24;101464.37;4418506;32;20374;-71
2022/03/11 04:00:48;;;;;;;;;;;;;;;2.84;31.67;101469.72;4415117;32;20004;-71
2022/03/11 04:03:17;;;;;;;;;;;;;;;3.06;31.86;101472.16;4426094;32;19990;-71
2022/03/11 04:05:43;;;;;;;;;;;;;;;2.78;32.25;101476.94;4421337;32;19973;-71
2022/03/11 04:08:10;;;;;;;;;;;;;;;2.79;32.78;101477.03;4427700;32;20382;-71
2022/03/11 04:10:38;;;;;;;;;;;;;;;2.52;32.24;101481.03;4411337;32;20876;-72
2022/03/11 04:13:05;;;;;;;;;;;;;;;2.56;33.15;101480.47;4420143;32;19993;-71
2022/03/11 04:15:33;;;;;;;;;;;;;;;2.60;33.05;101473.91;4426445;32;20034;-71
2022/03/11 04:18:00;;;;;;;;;;;;;;;2.64;32.77;101483.56;4424729;32;20323;-73
2022/03/11 04:20:27;;;;;;;;;;;;;;;2.51;32.73;101489.44;4416790;32;19985;-72
2022/03/11 04:22:54;;;;;;;;;;;;;;;2.47;33.43;101496.78;4418865;32;19993;-70
2022/03/11 04:25:23;;;;;;;;;;;;;;;2.70;32.42;101491.72;4415308;32;20050;-73
2022/03/11 04:27:50;;;;;;;;;;;;;;;2.69;32.72;101492.50;4417268;32;20422;-72
2022/03/11 04:30:19;;;;;;;;;;;;;;;2.51;32.52;101493.66;4424370;32;20031;-72
2022/03/11 04:32:46;;;;;;;;;;;;;;;2.44;32.74;101491.44;4431667;32;19993;-71
2022/03/11 04:35:13;;;;;;;;;;;;;;;2.33;33.06;101499.19;4430681;32;20205;-71
2022/03/11 04:37:40;;;;;;;;;;;;;;;2.38;32.96;101496.09;4423533;32;19986;-71
2022/03/11 04:40:08;;;;;;;;;;;;;;;2.17;34.46;101495.34;4416165;32;19991;-71
2022/03/11 04:42:35;;;;;;;;;;;;;;;2.44;33.15;101494.87;4418437;32;19985;-75
2022/03/11 04:45:02;;;;;;;;;;;;;;;2.25;33.35;101495.16;4425123;32;19961;-73
2022/03/11 04:47:29;;;;;;;;;;;;;;;2.29;33.54;101502.28;4436754;32;20445;-72
2022/03/11 04:49:57;;;;;;;;;;;;;;;2.16;33.75;101504.66;4432071;32;19999;-72
2022/03/11 04:52:24;;;;;;;;;;;;;;;2.11;34.02;101506.00;4431711;32;19990;-72
2022/03/11 04:54:50;;;;;;;;;;;;;;;2.17;33.62;101511.59;4431017;32;20399;-72
2022/03/11 04:57:17;;;;;;;;;;;;;;;2.24;33.20;101511.28;4424740;32;19965;-71
2022/03/11 04:59:44;;;;;;;;;;;;;;;2.20;34.11;101511.81;4416488;32;20409;-71
2022/03/11 05:02:11;;;;;;;;;;;;;;;2.02;34.19;101510.41;4416233;32;20365;-72
2022/03/11 05:04:38;;;;;;;;;;;;;;;2.14;33.95;101513.91;4415724;32;20041;-72
2022/03/11 05:07:07;;;;;;;;;;;;;;;2.19;33.63;101509.13;4416232;32;20271;-71
2022/03/11 05:09:34;;;;;;;;;;;;;;;2.02;34.92;101507.84;4416200;32;20315;-72
2022/03/11 05:12:01;;;;;;;;;;;;;;;1.80;34.45;101518.94;4426691;32;19986;-73
2022/03/11 05:14:28;;;;;;;;;;;;;;;2.08;34.18;101521.09;4418508;32;19973;-71
2022/03/11 05:16:55;;;;;;;;;;;;;;;2.22;33.50;101515.34;4422893;32;20013;-71
2022/03/11 05:19:24;;;;;;;;;;;;;;;1.86;34.50;101519.41;4424930;32;20030;-73
2022/03/11 05:21:51;;;;;;;;;;;;;;;1.84;34.85;101513.28;4416063;32;20027;-74
2022/03/11 05:24:18;;;;;;;;;;;;;;;1.82;34.41;101525.06;4416066;32;19997;-72
2022/03/11 05:26:48;;;;;;;;;;;;;;;1.75;34.67;101530.44;4426767;32;20307;-79
2022/03/11 05:29:15;;;;;;;;;;;;;;;1.61;34.72;101520.81;4424853;32;20008;-78
2022/03/11 05:31:43;;;;;;;;;;;;;;;1.66;35.32;101524.66;4415203;32;19982;-74
2022/03/11 05:34:10;;;;;;;;;;;;;;;1.89;35.25;101523.88;4091756;32;10000913;-73
2022/03/11 05:36:36;;;;;;;;;;;;;;;2.00;35.12;101532.37;4385337;32;19974;-79
2022/03/11 05:39:03;;;;;;;;;;;;;;;2.12;35.19;101527.31;4395544;32;19997;-73
2022/03/11 05:41:31;;;;;;;;;;;;;;;2.18;35.08;101538.91;4380686;32;20835;-78
2022/03/11 05:43:57;;;;;;;;;;;;;;;2.23;34.83;101526.47;4381996;32;19993;-72
2022/03/11 05:46:24;;;;;;;;;;;;;;;2.20;35.29;101536.44;4378916;32;20335;-73
2022/03/11 05:48:51;;;;;;;;;;;;;;;2.47;34.36;101537.66;4369818;32;20033;-73
2022/03/11 05:51:18;;;;;;;;;;;;;;;2.69;33.83;101543.62;4379107;32;20080;-72
2022/03/11 05:53:45;;;;;;;;;;;;;;;2.93;33.68;101546.22;4372379;32;19983;-73
2022/03/11 05:56:12;;;;;;;;;;;;;;;3.02;33.71;101542.66;4376835;32;19979;-71
2022/03/11 05:58:38;;;;;;;;;;;;;;;3.48;33.05;101540.03;4370080;32;20358;-72
2022/03/11 06:01:06;;;;;;;;;;;;;;;3.39;33.30;101544.47;4374640;32;19999;-75
2022/03/11 06:03:33;;;;;;;;;;;;;;;3.52;32.40;101541.13;4372879;32;19987;-72
2022/03/11 06:06:00;;;;;;;;;;;;;;;3.60;32.89;101546.00;4373840;32;19989;-73
2022/03/11 06:08:27;;;;;;;;;;;;;;;3.66;33.30;101550.66;4370082;32;19997;-72
2022/03/11 06:10:54;;;;;;;;;;;;;;;3.45;33.47;101562.84;4369902;32;20555;-74
2022/03/11 06:13:21;;;;;;;;;;;;;;;3.43;33.74;101564.38;4380284;32;20436;-73
2022/03/11 06:15:47;;;;;;;;;;;;;;;3.40;34.17;101566.72;4415729;32;20029;-79
2022/03/11 06:18:17;;;;;;;;;;;;;;;3.70;32.04;101568.94;4416107;32;20040;-74
2022/03/11 06:20:45;;;;;;;;;;;;;;;3.69;30.52;101562.00;4415437;32;19999;-73
2022/03/11 06:23:13;;;;;;;;;;;;;;;4.02;29.83;101562.63;4415607;32;20559;-76
2022/03/11 06:25:40;;;;;;;;;;;;;;;4.15;29.49;101564.38;4422547;32;19987;-73
2022/03/11 06:28:07;;;;;;;;;;;;;;;3.93;29.74;101567.12;4431011;32;19989;-74
2022/03/11 06:30:33;;;;;;;;;;;;;;;3.98;29.41;101565.75;4431415;32;20023;-73
2022/03/11 06:33:00;;;;;;;;;;;;;;;4.13;29.18;101566.81;4427680;32;19991;-72
2022/03/11 06:35:27;;;;;;;;;;;;;;;4.16;29.25;101566.16;4422662;32;19994;-72
2022/03/11 06:37:54;;;;;;;;;;;;;;;4.20;29.05;101574.16;3802379;32;20003728;-72
2022/03/11 06:40:21;;;;;;;;;;;;;;;4.29;29.08;101573.03;4415111;32;20004;-76
2022/03/11 06:42:48;;;;;;;;;;;;;;;4.28;28.29;101569.56;4422234;32;19982;-72
2022/03/11 06:45:15;;;;;;;;;;;;;;;4.20;28.04;101574.16;4428126;32;20337;-75
2022/03/11 06:47:42;;;;;;;;;;;;;;;4.19;27.86;101562.13;4419641;32;20001;-72
2022/03/11 06:50:09;;;;;;;;;;;;;;;4.24;27.44;101570.13;4414235;32;20000;-72
2022/03/11 06:52:36;;;;;;;;;;;;;;;4.17;28.01;101571.38;4414518;32;19986;-72
2022/03/11 06:55:03;;;;;;;;;;;;;;;4.17;28.02;101568.81;4434409;32;20005;-77
2022/03/11 06:57:30;;;;;;;;;;;;;;;4.68;27.24;101568.81;4426724;32;20040;-72
2022/03/11 06:59:57;;;;;;;;;;;;;;;4.86;27.36;101570.94;4435327;32;19994;-72
2022/03/11 07:02:24;;;;;;;;;;;;;;;5.17;26.37;101578.12;4415590;32;19978;-72
2022/03/11 07:04:53;;;;;;;;;;;;;;;5.13;26.12;101571.88;4415514;32;19992;-72
2022/03/11 07:07:19;;;;;;;;;;;;;;;5.29;25.41;101572.87;4415026;32;19997;-71
2022/03/11 07:09:47;;;;;;;;;;;;;;;5.19;25.74;101570.50;4415732;32;20085;-75
2022/03/11 07:12:14;;;;;;;;;;;;;;;5.38;25.71;101568.34;4415310;32;19978;-72
2022/03/11 07:14:41;;;;;;;;;;;;;;;5.78;25.25;101581.19;4423861;32;20331;-71
2022/03/11 07:17:09;;;;;;;;;;;;;;;5.87;24.66;101580.84;4415336;32;20057;-71
2022/03/11 07:19:36;;;;;;;;;;;;;;;5.95;24.83;101575.44;4418942;32;20227;-72
2022/03/11 07:22:03;;;;;;;;;;;;;;;6.26;23.72;101572.22;4426749;32;19981;-77
2022/03/11 07:24:31;;;;;;;;;;;;;;;6.42;23.46;101574.91;4429097;32;20259;-74
2022/03/11 07:26:58;;;;;;;;;;;;;;;6.60;23.36;101579.37;4428933;32;20040;-76
2022/03/11 07:29:26;;;;;;;;;;;;;;;6.84;23.07;101570.56;4423494;32;20035;-77
2022/03/11 07:31:53;;;;;;;;;;;;;;;6.90;22.85;101575.19;4417056;32;19970;-76
2022/03/11 07:34:23;;;;;;;;;;;;;;;7.22;22.34;101579.63;4432415;32;19986;-77
2022/03/11 07:36:50;;;;;;;;;;;;;;;6.94;22.54;101583.16;4417145;32;20679;-78
2022/03/11 07:39:17;;;;;;;;;;;;;;;7.44;22.40;101582.63;4421555;32;19997;-72
2022/03/11 07:41:44;;;;;;;;;;;;;;;7.79;22.00;101583.72;4414666;32;19990;-74
2022/03/11 07:44:11;;;;;;;;;;;;;;;7.59;21.83;101576.53;4420056;32;20372;-76
2022/03/11 07:46:43;;;;;;;;;;;;;;;7.53;21.69;101576.19;4433026;32;21074;-79
2022/03/11 07:49:10;;;;;;;;;;;;;;;7.58;21.93;101580.81;4421068;32;19998;-73
2022/03/11 07:51:37;;;;;;;;;;;;;;;7.66;21.76;101578.69;4415175;32;19981;-73
2022/03/11 07:54:04;;;;;;;;;;;;;;;7.62;22.07;101576.72;4414602;32;19997;-76
2022/03/11 07:56:31;;;;;;;;;;;;;;;7.65;21.87;101577.75;4418198;32;20032;-77
2022/03/11 07:58:58;;;;;;;;;;;;;;;7.74;21.66;101577.41;4421186;32;20044;-77
2022/03/11 08:01:26;;;;;;;;;;;;;;;8.12;21.75;101586.34;4426293;32;19996;-77
2022/03/11 08:03:53;;;;;;;;;;;;;;;8.16;21.66;101583.13;4441390;32;20459;-78
2022/03/11 08:06:20;;;;;;;;;;;;;;;8.49;21.00;101588.34;4430340;32;20048;-76
2022/03/11 08:08:46;;;;;;;;;;;;;;;8.07;21.41;101588.69;4423610;32;20021;-72
2022/03/11 08:11:14;;;;;;;;;;;;;;;7.85;21.63;101586.63;4415014;32;19993;-74
2022/03/11 08:13:41;;;;;;;;;;;;;;;7.87;21.33;101590.16;4416632;32;20870;-76
2022/03/11 08:16:11;;;;;;;;;;;;;;;7.94;21.48;101596.53;4421153;32;20002;-73
2022/03/11 08:18:39;;;;;;;;;;;;;;;7.86;21.65;101583.22;4426115;32;20037;-73
2022/03/11 08:21:06;;;;;;;;;;;;;;;7.81;21.90;101579.50;4417112;32;20005;-75
2022/03/11 08:23:33;;;;;;;;;;;;;;;8.08;21.76;101574.09;4420116;32;19974;-76
2022/03/11 08:26:00;;;;;;;;;;;;;;;8.46;21.05;101583.91;4424810;32;19989;-72
2022/03/11 08:28:27;;;;;;;;;;;;;;;8.56;20.38;101574.94;4429707;32;19993;-73
2022/03/11 08:30:55;;;;;;;;;;;;;;;8.70;20.71;101573.97;4424198;32;20095;-73
2022/03/11 08:33:24;;;;;;;;;;;;;;;8.94;20.10;101576.91;4413234;32;20001;-72
2022/03/11 08:36:11;;;;;;;;;;;;;;;8.42;20.60;101566.47;4425154;32;20001;-75
2022/03/11 08:38:40;;;;;;;;;;;;;;;8.85;20.10;101559.25;4416034;32;19993;-73
2022/03/11 08:41:08;;;;;;;;;;;;;;;8.96;20.52;101554.63;4420933;32;20327;-75
2022/03/11 08:43:38;;;;;;;;;;;;;;;8.91;19.61;101555.22;4413900;32;20543;-74
2022/03/11 08:46:05;;;;;;;;;;;;;;;8.91;20.24;101552.63;4413529;32;20025;-73
2022/03/11 08:48:32;;;;;;;;;;;;;;;8.67;19.80;101558.31;4398493;32;20260;-73
2022/03/11 08:50:59;;;;;;;;;;;;;;;9.05;19.41;101560.25;4383839;32;19983;-75
2022/03/11 08:53:26;;;;;;;;;;;;;;;9.36;18.62;101553.13;4383614;32;19986;-74
2022/03/11 08:55:53;;;;;;;;;;;;;;;8.75;19.71;101551.84;4383837;32;19990;-74
2022/03/11 08:58:20;;;;;;;;;;;;;;;9.00;19.87;101548.81;4383019;32;20388;-72
2022/03/11 09:00:47;;;;;;;;;;;;;;;9.09;19.68;101545.78;4383730;32;19983;-73
2022/03/11 09:03:14;;;;;;;;;;;;;;;8.95;19.75;101545.09;4386948;32;20048;-72
2022/03/11 09:05:41;;;;;;;;;;;;;;;9.50;18.61;101536.56;4398387;32;20257;-74
2022/03/11 09:08:08;;;;;;;;;;;;;;;9.51;18.98;101538.37;4398344;32;19986;-74
2022/03/11 09:10:34;;;;;;;;;;;;;;;9.15;19.12;101543.50;4399435;32;20475;-73
2022/03/11 09:13:02;;;;;;;;;;;;;;;9.27;19.31;101544.09;4400083;32;20292;-74
2022/03/11 09:15:29;;;;;;;;;;;;;;;9.55;18.38;101545.44;4400869;32;20000;-74
2022/03/11 09:17:56;;;;;;;;;;;;;;;9.27;18.88;101533.78;4399947;32;20002;-74
2022/03/11 09:20:23;;;;;;;;;;;;;;;9.01;18.69;101535.09;4391391;32;19971;-73
2022/03/11 09:22:58;;;;;;;;;;;;;;;9.15;19.04;101533.16;4385351;32;20325;-74
2022/03/11 09:25:24;;;;;;;;;;;;;;;9.16;18.58;101529.78;4386947;32;20005;-74
2022/03/11 09:27:51;;;;;;;;;;;;;;;9.08;18.99;101521.66;4422123;32;20309;-72
2022/03/11 09:30:18;;;;;;;;;;;;;;;9.32;18.78;101532.31;4414186;32;19982;-74
2022/03/11 09:32:46;;;;;;;;;;;;;;;9.04;19.30;101531.78;4416293;32;19977;-73
2022/03/11 09:35:13;;;;;;;;;;;;;;;9.08;19.07;101536.28;4417707;32;20376;-74
2022/03/11 09:37:40;;;;;;;;;;;;;;;8.83;18.92;101522.13;4422692;32;19986;-73
2022/03/11 09:40:07;;;;;;;;;;;;;;;8.82;19.42;101517.78;4416508;32;19974;-74
2022/03/11 09:42:34;;;;;;;;;;;;;;;9.13;19.41;101523.59;4424675;32;20892;-74
2022/03/11 09:45:02;;;;;;;;;;;;;;;8.77;19.23;101519.22;4423819;32;20283;-74
2022/03/11 09:47:28;;;;;;;;;;;;;;;8.88;18.82;101521.50;4430465;32;20030;-75
2022/03/11 09:49:55;;;;;;;;;;;;;;;9.37;18.84;101514.41;4430362;32;20001;-74
2022/03/11 09:52:25;;;;;;;;;;;;;;;9.17;19.13;101505.72;4425207;32;20012;-73
2022/03/11 09:54:52;;;;;;;;;;;;;;;9.15;19.22;101517.66;4416813;32;19989;-72
2022/03/11 09:57:19;;;;;;;;;;;;;;;9.36;18.43;101506.62;4419502;32;19985;-73
2022/03/11 09:59:46;;;;;;;;;;;;;;;9.05;18.52;101502.53;4427411;32;19970;-72
2022/03/11 10:02:23;;;;;;;;;;;;;;;8.68;18.73;101507.56;4428823;32;20012;-74
2022/03/11 10:04:51;;;;;;;;;;;;;;;8.71;19.02;101506.06;4425548;32;19962;-74
2022/03/11 10:07:38;;;;;;;;;;;;;;;8.63;19.33;101509.03;4420151;32;20008;-73
2022/03/11 10:10:18;;;;;;;;;;;;;;;8.74;19.44;101506.19;4267920;32;5092851;-73
2022/03/11 10:13:03;;;;;;;;;;;;;;;8.91;19.21;101499.28;4422709;32;20388;-74
2022/03/11 10:15:30;;;;;;;;;;;;;;;8.54;19.76;101493.97;4418089;32;20387;-74
2022/03/11 10:17:57;;;;;;;;;;;;;;;9.03;18.68;101489.56;4423025;32;20025;-74
2022/03/11 10:20:25;;;;;;;;;;;;;;;9.04;18.59;101493.91;4425208;32;19981;-73
2022/03/11 10:22:52;;;;;;;;;;;;;;;9.43;18.33;101495.75;4419272;32;20031;-72
2022/03/11 10:25:25;;;;;;;;;;;;;;;9.44;17.83;101489.75;4428637;32;20404;-73
2022/03/11 10:28:02;;;;;;;;;;;;;;;9.22;18.41;101493.94;4429382;32;20871;-73
2022/03/11 10:30:30;;;;;;;;;;;;;;;9.44;17.96;101494.91;4413913;32;20076;-72
2022/03/11 10:32:58;;;;;;;;;;;;;;;9.27;18.17;101487.25;4424091;32;19978;-74
2022/03/11 10:35:31;;;;;;;;;;;;;;;9.43;18.03;101482.81;4430459;32;19996;-74
2022/03/11 10:38:04;;;;;;;;;;;;;;;9.56;18.23;101485.16;4429387;32;19993;-73
2022/03/11 10:40:33;;;;;;;;;;;;;;;9.08;19.02;101479.44;4422454;32;20021;-74
2022/03/11 10:43:14;;;;;;;;;;;;;;;9.28;18.57;101481.31;4420474;32;19997;-73
2022/03/11 10:45:56;;;;;;;;;;;;;;;9.11;17.99;101479.59;4424133;32;20487;-73
2022/03/11 10:48:59;;;;;;;;;;;;;;;9.76;17.70;101478.31;4418288;32;20000;-72
2022/03/11 10:51:26;;;;;;;;;;;;;;;9.89;17.24;101469.41;4427761;32;19996;-73
2022/03/11 10:53:55;;;;;;;;;;;;;;;9.91;17.32;101458.31;4426179;32;19996;-73
2022/03/11 10:56:26;;;;;;;;;;;;;;;10.15;18.29;101466.31;4422493;32;20009;-73
2022/03/11 10:58:53;;;;;;;;;;;;;;;10.46;16.95;101459.88;4430215;32;20270;-75
2022/03/11 11:01:46;;;;;;;;;;;;;;;10.14;16.79;101459.34;4430280;32;19969;-73
2022/03/11 11:04:14;;;;;;;;;;;;;;;10.13;17.08;101444.63;4117882;32;10000321;-72
2022/03/11 11:06:41;;;;;;;;;;;;;;;10.49;16.49;101444.47;4421876;32;20004;-72
2022/03/11 11:09:09;;;;;;;;;;;;;;;10.38;15.76;101448.31;4429925;32;19989;-74
2022/03/11 11:11:36;;;;;;;;;;;;;;;9.89;16.87;101434.13;4427056;32;19993;-74
2022/03/11 11:14:05;;;;;;;;;;;;;;;9.99;16.54;101440.56;4426459;32;20031;-75
2022/03/11 11:16:32;;;;;;;;;;;;;;;10.04;16.28;101433.87;4429052;32;20016;-74
2022/03/11 11:19:00;;;;;;;;;;;;;;;10.24;16.73;101433.06;4428681;32;21402;-73
2022/03/11 11:21:27;;;;;;;;;;;;;;;10.37;16.04;101428.41;4425363;32;20001;-73
2022/03/11 11:23:54;;;;;;;;;;;;;;;10.51;16.40;101421.25;4427825;32;19981;-73
2022/03/11 11:26:23;;;;;;;;;;;;;;;9.55;17.18;101422.25;4429241;32;19985;-73
2022/03/11 11:28:54;;;;;;;;;;;;;;;10.49;16.70;101418.59;4427613;32;19985;-75
2022/03/11 11:31:21;;;;;;;;;;;;;;;10.48;17.83;101411.66;4427300;32;20000;-74
2022/03/11 11:33:48;;;;;;;;;;;;;;;10.01;15.77;101413.06;4424195;32;19988;-73
2022/03/11 11:36:35;;;;;;;;;;;;;;;9.85;16.31;101410.63;4429841;32;19989;-73
2022/03/11 11:39:06;;;;;;;;;;;;;;;9.97;15.82;101416.34;4427050;32;20000;-73
2022/03/11 11:41:35;;;;;;;;;;;;;;;10.35;15.75;101409.38;4419247;32;20001;-72
2022/03/11 11:44:03;;;;;;;;;;;;;;;10.32;15.99;101409.25;4428332;32;20004;-71
2022/03/11 11:46:34;;;;;;;;;;;;;;;10.60;15.40;101396.63;4438687;32;19997;-72
2022/03/11 11:49:15;;;;;;;;;;;;;;;10.43;15.58;101395.03;4429658;32;20039;-73
2022/03/11 11:51:42;;;;;;;;;;;;;;;10.34;15.42;101394.62;4425265;32;19997;-76
2022/03/11 11:54:09;;;;;;;;;;;;;;;10.32;14.92;101402.34;4430299;32;19977;-75
2022/03/11 11:57:01;;;;;;;;;;;;;;;9.97;15.42;101387.88;4426955;32;20446;-73
2022/03/11 11:59:38;;;;;;;;;;;;;;;10.18;16.25;101386.22;4429265;32;20388;-73
2022/03/11 12:02:34;;;;;;;;;;;;;;;10.13;15.80;101377.38;4427409;32;20061;-73
2022/03/11 12:05:39;;;;;;;;;;;;;;;10.59;15.98;101376.75;4419350;32;20000;-74
2022/03/11 12:08:06;;;;;;;;;;;;;;;10.64;15.82;101377.78;4428314;32;19990;-73
2022/03/11 12:10:33;;;;;;;;;;;;;;;10.65;15.19;101373.50;4427270;32;20081;-74
2022/03/11 12:13:00;;;;;;;;;;;;;;;10.80;15.26;101373.22;4429669;32;19989;-75
2022/03/11 12:15:31;;;;;;;;;;;;;;;10.84;15.58;101369.94;4430694;32;20026;-74
2022/03/11 12:18:02;;;;;;;;;;;;;;;10.79;15.57;101362.00;4425538;32;20345;-72
2022/03/11 12:20:45;;;;;;;;;;;;;;;10.76;15.16;101372.22;4424795;32;20031;-74
2022/03/11 12:23:15;;;;;;;;;;;;;;;10.72;16.80;101365.16;4428408;32;20044;-73
2022/03/11 12:25:50;;;;;;;;;;;;;;;10.25;16.60;101362.34;4429156;32;19988;-73
2022/03/11 12:28:32;;;;;;;;;;;;;;;10.97;15.31;101367.00;4428304;32;20044;-75
2022/03/11 12:31:07;;;;;;;;;;;;;;;10.99;14.92;101360.16;4429617;32;20327;-75
2022/03/11 12:33:37;;;;;;;;;;;;;;;10.97;15.63;101356.63;4422968;32;19981;-74
2022/03/11 12:36:05;;;;;;;;;;;;;;;10.68;15.45;101348.59;4427742;32;19974;-73
2022/03/11 12:38:32;;;;;;;;;;;;;;;10.54;15.91;101354.06;4429238;32;20031;-73
2022/03/11 12:41:03;;;;;;;;;;;;;;;10.21;16.39;101341.44;4426406;32;19993;-74
2022/03/11 12:43:30;;;;;;;;;;;;;;;10.82;15.43;101340.50;4427795;32;19999;-73
2022/03/11 12:45:59;;;;;;;;;;;;;;;10.65;14.98;101342.41;4424357;32;20013;-72
2022/03/11 12:48:39;;;;;;;;;;;;;;;10.79;15.02;101345.56;4405534;32;20438;-73
2022/03/11 12:51:07;;;;;;;;;;;;;;;10.74;14.80;101341.91;4398292;32;35786;-73
2022/03/11 12:53:38;;;;;;;;;;;;;;;10.63;14.81;101334.59;4399333;32;38490;-73